AirNav   Air Wisconsin pilot careers
 
 1002 users online  

L88 New Cuyama Airport
New Cuyama, California, USA

GOING TO NEW CUYAMA?


FAA INFORMATION EFFECTIVE 11 OCTOBER 2018

Location

FAA Identifier: L88
Lat/Long: 34-56-23.8000N / 119-41-08.1000W
34-56.396667N / 119-41.135000W
34.9399444 / -119.6855833
(estimated)
Elevation: 2203 ft. / 671 m (estimated)
Variation: 14E (1985)
Time zone: UTC -7 (UTC -8 during Standard Time)
Zip code: 93254

Airport Operations

Airport use: Open to the public
Activation date: 09/1950
Control tower: no
ARTCC: LOS ANGELES CENTER
FSS: RANCHO MURIETA FLIGHT SERVICE STATION
NOTAMs facility: RIU (NOTAM-D service available)
Attendance: UNATNDD
Wind indicator: yes
Segmented circle: yes

Airport Communications

CTAF: 122.9

Nearby radio navigation aids

VOR radial/distance  VOR name  Freq  Var
FLWr120/12.8FELLOWS VOR/DME117.5016E
RZSr355/26.2SAN MARCUS VORTAC114.9014E
GVOr023/31.6GAVIOTA VORTAC113.8016E

Airport Services

Parking: tiedowns
Airframe service: NONE
Powerplant service: NONE
Bottled oxygen: NONE
Bulk oxygen: NONE

Runway Information

Runway 10/28

Dimensions: 3940 x 60 ft. / 1201 x 18 m
Surface: asphalt, in poor condition
RUNWAY 10  RUNWAY 28
Latitude: 34-56.541333N34-56.251667N
Longitude: 119-41.488833W119-40.782667W
Traffic pattern: rightleft
Markings: basic, in fair conditionbasic, in fair condition
Runway end identifier lights: nono
Obstructions: 20 ft. tree, 250 ft. from runway, 2:1 slope to clear4 ft. fence, 200 ft. from runway, 80 ft. left of centerline

Airport Ownership and Management from official FAA records

Ownership: Privately-owned
Owner: ZANNON FAMILY FOUNDATION
P.O. BOX 21957
SANTA BARBARA, CA 93121
Phone 805-962-5200
EUGENE F. ZANNON, TRUSTEE
Manager: HARRY CURTIS
PO BOX 359
NEW CUYAMA, CA 93254
Phone 805-440-5022

Airport Operational Statistics

Aircraft operations: avg 42/month *
100% transient general aviation
* for 12-month period ending 30 May 2017

Additional Remarks

ACFT PRKG 125 FT N OF RWY CNTRLN AT RWY 10 APCH END.
RWY 10 +25 FT PWR POLES & PLINES RUN PARTIALLY UNDERGROUND 270 FT BYD RWY END, 164 FT R OF CNTRLN.

Instrument Procedures

There are no published instrument procedures at L88.

Some nearby airports with instrument procedures:

KIZA - Santa Ynez Airport (28 nm SW)
KSBA - Santa Barbara Municipal Airport (32 nm S)
KSMX - Santa Maria Public Airport/Capt G Allan Hancock Field (38 nm W)
L45 - Bakersfield Municipal Airport (41 nm NE)
KMIT - Shafter Airport-Minter Field (42 nm NE)
 
Loc | Ops | Rwys | IFR | FBO | Links
Com | Nav | Svcs | Stats | Notes


 
Area around L88 (New Cuyama Airport)
 
Road maps at: MapQuest Bing Google
 
Aerial photo
WARNING: Photo may not be current or correct
Aerial photo of L88 (New Cuyama Airport)
Photo taken 03-Mar-2016
looking west.

Do you have a better or more recent aerial photo of New Cuyama Airport that you would like to share? If so, please send us your photo.

 
Sectional chart

 
Airport distance calculator
Flying to New Cuyama Airport? Find the distance to fly.

From to L88

Sunrise and sunset
Times for 16-Oct-2018
 Local
(UTC-7)
 Zulu
(UTC)
Morning civil twilight06:4113:41
Sunrise07:0714:07
Sunset18:2201:22
Evening civil twilight18:4801:48

Current date and time
Zulu (UTC)  17-Oct-2018 02:24:35
Local (UTC-7)  16-Oct-2018 19:24:35
 
METAR
KIZA 
28nm SW 
170155Z AUTO 25008KT 10SM CLR 17/09 A3005 RMK AO2
KSBA 
31nm S 
170153Z 00000KT 10SM CLR 17/13 A2999 RMK AO2 SLP155 T01720128
KSMX 
38nm W 
170151Z 29007KT 10SM CLR 17/11 A3004 RMK AO2 SLP175 T01670106 $
KLPC 
42nm SW 
170156Z AUTO 26005KT 10SM CLR 16/12 A3005 RMK AO2 SLP179 T01560117
KBFL 
43nm NE 
170154Z 35007KT 10SM CLR 21/01 A3001 RMK AO2 SLP160 T02110006
2CN4 
45nm N 
SuperAWOS
170155Z AUTO 00000KT 10SM 18/04 A3006
KL52 
47nm W 
170155Z AUTO VRB04KT 10SM CLR 18/06 A3003 RMK A01
KVBG 
47nm SW 
170158Z AUTO 35006KT 10SM CLR 14/12 A3004 RMK AO2 LTG DSNT S SLP176 T01440116
KSDB 
49nm E 
170153Z AUTO 35007KT 10SM CLR 15/M14 A3016 RMK AO2 SLP180 T01501139
KSBP 
50nm W 
170156Z 32006KT 10SM CLR 16/11 A3003 RMK AO2 SLP169 T01610106
TAF
KSBA 
31nm S 
161720Z 1618/1718 06003KT P6SM SKC FM162000 26008KT P6SM SKC FM170200 VRB03KT P6SM SKC FM171600 22005KT P6SM SKC
KSMX 
38nm W 
162258Z 1623/1718 31015KT P6SM SKC FM170100 31010KT P6SM SKC FM170300 VRB03KT P6SM SKC FM171600 30005KT P6SM SKC
NOTAMs
Click for the latest NOTAMs
NOTAMs are issued by the DoD/FAA and will open in a separate window not controlled by AirNav.

 

 
 

Would you like to see your business listed on this page?

 If your business provides an interesting product or service to pilots, flight crews, aircraft, or users of the New Cuyama Airport, you should consider listing it here.  To start the listing process, click on the button below
 
Add a business
 

Other Pages about New Cuyama Airport

Update a link
 
Copyright © AirNav, LLC. All rights reserved. Privacy Policy  Contact